Flight Track Log - Related Links

Times and Time Zones

All times are in EDT time to prevent confusion due to time zone crossing. See the LOF3359 flight status page for this flight to view local times or setup timezone preferences in your user account.

Time Position Orientation Groundspeed Altitude Reporting Facility
EDT Latitude Longitude Course Direction KTS MPH feet Rate Location/Type
Sat 02:50:40 PM 39.8989 -84.2389 79° East 148 170 1,600  Level Indianapolis Center
Sat 02:51:04 PM 39.8836 -84.2478 204° Southwest 153 176 2,600 2,348 Climbing Indianapolis Center
Sat 02:51:26 PM 39.8675 -84.2447 172° South 175 201 3,400 2,024 Climbing Indianapolis Center
Sat 02:52:27 PM 39.8175 -84.1997 145° Southeast 229 264 5,400 2,146 Climbing Indianapolis Center
Sat 02:53:00 PM 39.9575 -83.8085 83° East  Level FlightAware Approximate
Sat 02:53:29 PM 39.8369 -84.0972 76° East 280 322 7,800  Level Indianapolis Center
Sat 02:54:00 PM 39.9738 -83.6704 79° East  Level FlightAware Approximate
Sat 02:54:31 PM 39.8603 -83.9828 75° East 307 353 10,000  Level Indianapolis Center
Sat 02:55:00 PM 39.9949 -83.5333 79° East  Level FlightAware Approximate
Sat 02:55:32 PM 39.8878 -83.8586 74° East 340 391 11,900  Level Indianapolis Center
Sat 02:56:34 PM 39.9172 -83.7225 74° East 381 438 13,700 1,756 Climbing Indianapolis Center
Sat 02:57:35 PM 39.9464 -83.5825 75° East 391 450 15,500 1,707 Climbing Indianapolis Center
Sat 02:58:37 PM 39.9772 -83.4361 75° East 405 466 17,200 1,790 Climbing Indianapolis Center
Sat 02:59:39 PM 40.0075 -83.2886 75° East 412 474 19,200 1,756 Climbing Indianapolis Center
Sat 03:00:40 PM 40.0383 -83.1411 75° East 416 479 20,800 1,512 Climbing Indianapolis Center
Sat 03:01:42 PM 40.0703 -82.9861 75° East 434 499 22,300 1,500 Climbing Indianapolis Center
Sat 03:02:44 PM 40.1036 -82.8269 75° East 447 514 23,900 1,512 Climbing Indianapolis Center
Sat 03:03:45 PM 40.1369 -82.6614 75° East 463 533 25,400 1,415 Climbing Indianapolis Center
Sat 03:04:47 PM 40.1436 -82.4911 87° East 473 544 26,800 774 Climbing Indianapolis Center
Sat 03:05:49 PM 40.1297 -82.2794 95° East 494 568 27,000 98 Climbing Indianapolis Center
Sat 03:06:50 PM 40.1153 -82.0869 96° East 522 601 27,000  Level Indianapolis Center
Sat 03:07:52 PM 40.1011 -81.8861 95° East 545 627 27,000  Level Indianapolis Center
Sat 03:08:54 PM 40.0847 -81.6731 96° East 556 640 27,000  Level Indianapolis Center
Sat 03:09:55 PM 40.0686 -81.4678 96° East 562 647 27,000  Level Indianapolis Center
Sat 03:10:57 PM 40.0522 -81.2631 96° East 564 649 27,000  Level Indianapolis Center
Sat 03:11:59 PM 39.9992 -81.0753 110° East 550 633 27,000  Level Indianapolis Center
Sat 03:13:00 PM 39.9331 -80.8886 115° Southeast 537 618 27,000  Level Indianapolis Center
Sat 03:14:02 PM 39.8700 -80.7175 116° Southeast 525 604 27,000  Level Indianapolis Center
Sat 03:15:03 PM 39.8083 -80.5469 115° Southeast 518 596 27,000  Level Indianapolis Center
Sat 03:15:23 PM 39.7894 -80.4847 112° Southeast 522 601 27,000  Level Washington Center
Sat 03:16:23 PM 39.7353 -80.3300 114° Southeast 516 594 27,000  Level Washington Center
Sat 03:17:23 PM 39.6750 -80.1642 115° Southeast 516 594 27,000  Level Washington Center
Sat 03:18:24 PM 39.6122 -80.0014 117° Southeast 516 594 27,000  Level Washington Center
Sat 03:19:23 PM 39.5578 -79.8336 113° Southeast 510 587 27,000  Level Washington Center
Sat 03:20:23 PM 39.5244 -79.6514 103° East 510 587 27,000  Level Washington Center
Sat 03:21:23 PM 39.4908 -79.4722 104° East 510 587 27,000 -446 Level Washington Center
Sat 03:22:24 PM 39.4589 -79.2903 103° East 510 587 26,100 -1,550 Descending Washington Center
Sat 03:23:23 PM 39.4150 -79.0892 106° East 522 601 23,900 -2,350 Descending Washington Center
Sat 03:24:24 PM 39.3861 -78.9267 103° East 495 570 21,400 -2,800 Descending Washington Center
Sat 03:25:23 PM 39.3572 -78.7697 103° East 464 534 18,300 -2,824 Descending Washington Center
Sat 03:26:23 PM 39.3317 -78.6236 103° East 435 501 15,800 -2,600 Descending Washington Center
Sat 03:27:23 PM 39.3061 -78.4803 103° East 421 484 13,100 -2,400 Descending Washington Center
Sat 03:28:23 PM 39.2758 -78.3506 107° East 395 455 11,000 -1,050 Descending Washington Center
Sat 03:29:23 PM 39.2219 -78.2467 124° Southeast 362 417 11,000 -744 Level Washington Center
Sat 03:30:24 PM 39.1717 -78.1511 124° Southeast 341 392 9,500 -1,050 Descending Washington Center
Sat 03:31:23 PM 39.0956 -78.1056 155° Southeast 296 341 8,900 -252 Descending Washington Center
Sat 03:32:23 PM 39.0192 -78.0711 161° South 291 335 9,000 -250 Climbing Washington Center
Sat 03:33:23 PM 38.9622 -78.0022 137° Southeast 283 326 8,400 -750 Descending Washington Center
Sat 03:34:23 PM 38.9644 -77.8956 88° East 258 297 7,500 -700 Descending Washington Center
Sat 03:35:23 PM 38.9661 -77.8022 89° East 253 291 7,000 -446 Descending Washington Center
Sat 03:36:24 PM 38.9614 -77.7167 94° East 259 298 6,600 -550 Descending Washington Center
Sat 03:37:23 PM 38.9672 -77.6206 86° East 251 289 5,900 -412 Descending Washington Center
Sat 03:38:06 PM 39.0000 -77.5833 41° Northeast 239 275 5,900 58 Level Potomac TRACON
Sat 03:39:06 PM 39.0667 -77.5667 11° North 229 264 6,000 -313 Climbing Potomac TRACON
Sat 03:40:01 PM 39.1167 -77.5667 360° North 225 259 5,300 -496 Descending Potomac TRACON
Sat 03:41:07 PM 39.2000 -77.5833 351° North 221 254 5,000 -149 Descending Potomac TRACON
Sat 03:42:02 PM 39.2333 -77.5333 49° Northeast 255 293 5,000 -261 Level Potomac TRACON
Sat 03:43:02 PM 39.1833 -77.4833 142° Southeast 212 244 4,500 -650 Descending Potomac TRACON
Sat 03:44:02 PM 39.1333 -77.4500 153° Southeast 206 237 3,700 -1,050 Descending Potomac TRACON
Sat 03:45:02 PM 39.0667 -77.4667 191° South 199 229 2,400 -1,300 Descending Potomac TRACON

Login

Don't have an account? Register now (free) for customized features, flight alerts, and more!